createdAt,value
2018-12-02T00:01:09.485Z,17.10
2018-12-02T00:03:37.227Z,17.10
2018-12-02T00:06:04.894Z,17.10
2018-12-02T00:08:34.624Z,17.10
2018-12-02T00:11:02.210Z,17.10
2018-12-02T00:13:29.845Z,17.10
2018-12-02T00:15:57.521Z,17.10
2018-12-02T00:18:25.118Z,17.10
2018-12-02T00:20:52.799Z,17.10
2018-12-02T00:23:21.108Z,17.10
2018-12-02T00:25:48.750Z,17.00
2018-12-02T00:28:16.373Z,17.00
2018-12-02T00:30:43.991Z,17.10
2018-12-02T00:33:11.699Z,17.00
2018-12-02T00:35:39.302Z,17.10
2018-12-02T00:38:07.610Z,17.10
2018-12-02T00:40:35.195Z,17.10
2018-12-02T00:43:02.941Z,17.00
2018-12-02T00:45:32.236Z,17.00
2018-12-02T00:48:00.643Z,17.00
2018-12-02T00:50:28.256Z,17.00
2018-12-02T00:52:56.502Z,17.00
2018-12-02T00:55:24.798Z,17.00
2018-12-02T00:57:52.705Z,17.00
2018-12-02T01:00:20.389Z,17.00
2018-12-02T01:02:48.566Z,17.00
2018-12-02T01:05:16.702Z,17.00
2018-12-02T01:07:44.487Z,17.00
2018-12-02T01:10:12.761Z,17.00
2018-12-02T01:12:40.399Z,17.00
2018-12-02T01:15:08.858Z,17.00
2018-12-02T01:17:36.549Z,17.00
2018-12-02T01:20:04.289Z,17.00
2018-12-02T01:22:31.897Z,17.00
2018-12-02T01:24:59.646Z,17.00
2018-12-02T01:27:27.260Z,17.00
2018-12-02T01:29:55.678Z,17.00
2018-12-02T01:32:23.271Z,17.00
2018-12-02T01:34:50.940Z,17.00
2018-12-02T01:37:18.659Z,17.00
2018-12-02T01:39:46.238Z,17.00
2018-12-02T01:42:13.951Z,17.00
2018-12-02T01:44:41.638Z,17.00
2018-12-02T01:47:09.281Z,17.00
2018-12-02T01:49:37.178Z,17.00
2018-12-02T01:52:05.936Z,17.00
2018-12-02T01:54:33.622Z,17.00
2018-12-02T01:57:01.368Z,17.00
2018-12-02T01:59:28.956Z,16.90
2018-12-02T02:01:57.238Z,16.90
2018-12-02T02:04:25.153Z,17.00
2018-12-02T02:06:52.752Z,16.90
2018-12-02T02:09:20.351Z,16.90
2018-12-02T02:11:48.107Z,16.90
2018-12-02T02:14:15.736Z,16.90
2018-12-02T02:16:43.369Z,16.90
2018-12-02T02:19:10.997Z,16.90
2018-12-02T02:21:38.603Z,16.90
2018-12-02T02:24:06.242Z,16.90
2018-12-02T02:29:13.771Z,16.90
2018-12-02T02:31:41.356Z,16.90
2018-12-02T02:34:08.889Z,16.90
2018-12-02T02:36:36.511Z,16.90
2018-12-02T02:39:05.350Z,16.90
2018-12-02T02:41:32.909Z,16.90
2018-12-02T02:44:00.519Z,16.90
2018-12-02T02:46:34.243Z,16.90
2018-12-02T02:49:02.129Z,16.90
2018-12-02T02:51:29.766Z,16.90
2018-12-02T02:53:57.279Z,16.90
2018-12-02T02:56:24.937Z,16.90
2018-12-02T02:58:52.688Z,16.90
2018-12-02T03:01:20.432Z,16.90
2018-12-02T03:03:48.342Z,16.90
2018-12-02T03:06:16.072Z,16.90
2018-12-02T03:08:43.690Z,16.90
2018-12-02T03:11:11.179Z,16.90
2018-12-02T03:13:38.673Z,16.90
2018-12-02T03:16:06.584Z,16.90
2018-12-02T03:18:34.332Z,16.90
2018-12-02T03:21:01.846Z,16.90
2018-12-02T03:23:29.487Z,16.90
2018-12-02T03:25:57.087Z,16.90
2018-12-02T03:28:24.570Z,16.90
2018-12-02T03:30:52.208Z,16.90
2018-12-02T03:33:19.715Z,16.90
2018-12-02T03:35:47.253Z,16.90
2018-12-02T03:38:14.762Z,16.90
2018-12-02T03:40:42.287Z,16.90
2018-12-02T03:43:10.913Z,16.90
2018-12-02T03:45:38.420Z,16.90
2018-12-02T03:48:05.907Z,16.90
2018-12-02T03:50:33.382Z,16.90
2018-12-02T03:53:00.861Z,16.90
2018-12-02T03:55:28.359Z,16.90
2018-12-02T03:57:55.858Z,16.90
2018-12-02T04:00:24.116Z,16.90
2018-12-02T04:02:51.915Z,16.90
2018-12-02T04:05:19.949Z,16.90
2018-12-02T04:07:47.488Z,16.90
2018-12-02T04:10:16.115Z,16.80
2018-12-02T04:12:43.849Z,16.90
2018-12-02T04:15:12.860Z,16.80
2018-12-02T04:17:40.432Z,16.80
2018-12-02T04:20:08.510Z,16.90
2018-12-02T04:22:36.096Z,16.90
2018-12-02T04:25:03.627Z,16.90
2018-12-02T04:27:31.108Z,16.80
2018-12-02T04:29:58.574Z,16.90
2018-12-02T04:32:26.059Z,16.80
2018-12-02T04:34:53.554Z,16.80
2018-12-02T04:37:21.059Z,16.80
2018-12-02T04:39:48.542Z,16.80
2018-12-02T04:42:16.066Z,16.90
2018-12-02T04:44:43.537Z,16.80
2018-12-02T04:47:11.058Z,16.80
2018-12-02T04:49:38.558Z,16.80
2018-12-02T04:52:06.054Z,16.90
2018-12-02T04:54:33.567Z,16.80
2018-12-02T04:57:01.068Z,16.80
2018-12-02T04:59:28.601Z,16.80
2018-12-02T05:01:56.086Z,16.80
2018-12-02T05:04:23.562Z,16.80
2018-12-02T05:06:51.115Z,16.80
2018-12-02T05:09:18.585Z,16.80
2018-12-02T05:11:46.050Z,16.80
2018-12-02T05:14:13.510Z,16.80
2018-12-02T05:16:40.981Z,16.80
2018-12-02T05:19:08.437Z,16.80
2018-12-02T05:21:35.971Z,16.80
2018-12-02T05:24:03.511Z,16.80
2018-12-02T05:26:30.984Z,16.80
2018-12-02T05:28:58.463Z,16.80
2018-12-02T05:31:25.934Z,16.80
2018-12-02T05:33:53.399Z,16.80
2018-12-02T05:36:20.879Z,16.80
2018-12-02T05:38:48.350Z,16.80
2018-12-02T05:41:15.838Z,16.80
2018-12-02T05:43:43.321Z,16.80
2018-12-02T05:46:10.776Z,16.80
2018-12-02T05:48:38.229Z,16.70
2018-12-02T05:51:05.689Z,16.70
2018-12-02T05:53:33.153Z,16.70
2018-12-02T05:56:00.625Z,16.70
2018-12-02T05:58:28.109Z,16.70
2018-12-02T06:00:55.573Z,16.70
2018-12-02T06:03:23.055Z,16.70
2018-12-02T06:05:50.509Z,16.70
2018-12-02T06:08:17.965Z,16.70
2018-12-02T06:10:45.418Z,16.70
2018-12-02T06:13:12.942Z,16.70
2018-12-02T06:15:40.407Z,16.70
2018-12-02T06:18:07.865Z,16.70
2018-12-02T06:20:35.326Z,16.70
2018-12-02T06:23:02.810Z,16.70
2018-12-02T06:25:30.265Z,16.70
2018-12-02T06:27:57.713Z,16.70
2018-12-02T06:30:25.689Z,16.70
2018-12-02T06:32:54.681Z,16.70
2018-12-02T06:35:22.146Z,16.70
2018-12-02T06:37:50.069Z,16.70
2018-12-02T06:40:19.100Z,16.70
2018-12-02T06:42:46.581Z,16.70
2018-12-02T06:45:14.127Z,16.70
2018-12-02T06:47:41.642Z,16.70
2018-12-02T06:50:10.862Z,16.70
2018-12-02T06:52:38.329Z,16.60
2018-12-02T06:55:06.975Z,16.60
2018-12-02T06:57:34.455Z,16.70
2018-12-02T07:00:21.209Z,16.70
2018-12-02T07:02:50.574Z,16.60
2018-12-02T07:05:19.413Z,16.60
2018-12-02T07:07:46.933Z,16.70
2018-12-02T07:10:14.381Z,16.70
2018-12-02T07:12:41.861Z,16.70
2018-12-02T07:15:09.322Z,16.70
2018-12-02T07:17:36.805Z,16.80
2018-12-02T07:20:04.730Z,16.80
2018-12-02T07:22:32.210Z,16.80
2018-12-02T07:24:59.679Z,16.90
2018-12-02T07:27:27.142Z,16.90
2018-12-02T07:29:54.606Z,16.90
2018-12-02T07:32:22.074Z,16.90
2018-12-02T07:34:49.550Z,17.00
2018-12-02T07:37:17.738Z,17.00
2018-12-02T07:39:49.378Z,17.00
2018-12-02T07:42:16.838Z,17.00
2018-12-02T07:44:44.313Z,17.00
2018-12-02T07:47:11.791Z,17.00
2018-12-02T07:49:39.254Z,17.10
2018-12-02T07:52:06.721Z,17.10
2018-12-02T07:54:34.193Z,17.10
2018-12-02T07:57:01.671Z,17.10
2018-12-02T07:59:29.137Z,17.10
2018-12-02T08:01:56.597Z,17.10
2018-12-02T08:04:24.069Z,17.20
2018-12-02T08:06:51.611Z,17.20
2018-12-02T08:09:19.081Z,17.20
2018-12-02T08:11:46.540Z,17.20
2018-12-02T08:14:13.981Z,17.20
2018-12-02T08:16:41.434Z,17.20
2018-12-02T08:19:08.886Z,17.20
2018-12-02T08:21:36.334Z,17.20
2018-12-02T08:24:03.878Z,17.20
2018-12-02T08:26:31.334Z,17.20
2018-12-02T08:29:01.986Z,17.20
2018-12-02T08:31:29.447Z,17.30
2018-12-02T08:33:56.946Z,17.30
2018-12-02T08:36:24.378Z,17.20
2018-12-02T08:38:51.924Z,17.20
2018-12-02T08:41:23.790Z,17.30
2018-12-02T08:43:51.378Z,17.30
2018-12-02T08:46:18.825Z,17.30
2018-12-02T08:48:46.299Z,17.30
2018-12-02T08:51:13.761Z,17.30
2018-12-02T08:53:41.255Z,17.30
2018-12-02T08:56:08.719Z,17.30
2018-12-02T08:58:36.195Z,17.30
2018-12-02T09:01:03.647Z,17.30
2018-12-02T09:03:31.162Z,17.40
2018-12-02T09:05:58.702Z,17.40
2018-12-02T09:08:26.181Z,17.40
2018-12-02T09:10:53.656Z,17.40
2018-12-02T09:13:21.145Z,17.40
2018-12-02T09:15:48.614Z,17.40
2018-12-02T09:18:16.070Z,17.40
2018-12-02T09:20:49.217Z,17.40
2018-12-02T09:23:16.678Z,17.40
2018-12-02T09:25:44.149Z,17.40
2018-12-02T09:28:11.609Z,17.40
2018-12-02T09:30:39.077Z,17.40
2018-12-02T09:33:09.213Z,17.40
2018-12-02T09:35:36.683Z,17.40
2018-12-02T09:38:04.241Z,17.40
2018-12-02T09:40:31.770Z,17.40
2018-12-02T09:42:59.322Z,17.40
2018-12-02T09:45:27.317Z,17.40
2018-12-02T09:47:55.566Z,17.40
2018-12-02T09:50:23.041Z,17.40
2018-12-02T09:52:50.505Z,17.40
2018-12-02T09:55:18.783Z,17.40
2018-12-02T09:57:46.253Z,17.50
2018-12-02T10:00:25.888Z,17.40
2018-12-02T10:02:53.337Z,17.40
2018-12-02T10:05:20.912Z,17.30
2018-12-02T10:07:50.425Z,17.30
2018-12-02T10:10:28.713Z,17.30
2018-12-02T10:13:04.577Z,17.30
2018-12-02T10:15:33.408Z,17.40
2018-12-02T10:18:02.959Z,17.40
2018-12-02T10:20:30.557Z,17.40
2018-12-02T10:22:58.287Z,17.40
2018-12-02T10:25:25.899Z,17.40
2018-12-02T10:27:53.559Z,17.50
2018-12-02T10:30:22.403Z,17.40
2018-12-02T10:32:50.124Z,17.50
2018-12-02T10:35:17.593Z,17.50
2018-12-02T10:37:45.054Z,17.50
2018-12-02T10:40:14.270Z,17.50
2018-12-02T10:42:41.746Z,17.50
2018-12-02T10:45:10.109Z,17.50
2018-12-02T10:47:37.582Z,17.50
2018-12-02T10:50:08.171Z,17.50
2018-12-02T10:52:35.664Z,17.50
2018-12-02T10:55:03.166Z,17.50
2018-12-02T10:57:30.719Z,17.50
2018-12-02T11:00:02.768Z,17.50
2018-12-02T11:02:41.423Z,17.50
2018-12-02T11:05:09.618Z,17.50
2018-12-02T11:07:39.493Z,17.50
2018-12-02T11:10:11.793Z,17.50
2018-12-02T11:12:39.662Z,17.50
2018-12-02T11:15:10.489Z,17.50
2018-12-02T11:17:38.518Z,17.50
2018-12-02T11:20:07.676Z,17.50
2018-12-02T11:22:35.986Z,17.50
2018-12-02T11:25:03.701Z,17.50
2018-12-02T11:27:31.551Z,17.50
2018-12-02T11:29:59.336Z,17.50
2018-12-02T11:32:27.300Z,17.50
2018-12-02T11:34:55.682Z,17.50
2018-12-02T11:37:23.651Z,17.50
2018-12-02T11:39:51.571Z,17.50
2018-12-02T11:42:19.463Z,17.50
2018-12-02T11:44:47.441Z,17.50
2018-12-02T11:47:15.314Z,17.50
2018-12-02T11:49:43.235Z,17.60
2018-12-02T11:52:11.230Z,17.60
2018-12-02T11:54:40.066Z,17.60
2018-12-02T11:57:07.874Z,17.60
2018-12-02T11:59:36.353Z,17.60
2018-12-02T12:02:07.677Z,17.60
2018-12-02T12:04:32.987Z,17.60
2018-12-02T12:07:01.010Z,17.60
2018-12-02T12:09:28.855Z,17.60
2018-12-02T12:11:58.607Z,17.60
2018-12-02T12:14:26.354Z,17.60
2018-12-02T12:16:54.137Z,17.60
2018-12-02T12:19:21.778Z,17.60
2018-12-02T12:21:49.898Z,17.60
2018-12-02T12:24:17.510Z,17.60
2018-12-02T12:26:45.171Z,17.60
2018-12-02T12:29:12.944Z,17.60
2018-12-02T12:31:40.970Z,17.60
2018-12-02T12:34:08.569Z,17.60
2018-12-02T12:36:36.293Z,17.50
2018-12-02T12:39:06.591Z,17.50
2018-12-02T12:41:34.562Z,17.50
2018-12-02T12:44:03.708Z,17.50
2018-12-02T12:46:31.349Z,17.50
2018-12-02T12:48:59.090Z,17.50
2018-12-02T12:51:26.809Z,17.50
2018-12-02T12:53:54.618Z,17.50
2018-12-02T12:56:22.447Z,17.50
2018-12-02T12:59:07.934Z,17.50
2018-12-02T13:01:37.044Z,17.40
2018-12-02T13:04:22.214Z,17.50
2018-12-02T13:06:50.426Z,17.50
2018-12-02T13:09:23.108Z,17.40
2018-12-02T13:11:53.925Z,17.50
2018-12-02T13:14:25.326Z,17.50
2018-12-02T13:16:56.392Z,17.50
2018-12-02T13:19:25.597Z,17.50
2018-12-02T13:21:53.136Z,17.50
2018-12-02T13:24:23.278Z,17.50
2018-12-02T13:26:55.878Z,17.50
2018-12-02T13:29:29.107Z,17.50
2018-12-02T13:32:15.503Z,17.50
2018-12-02T13:34:47.664Z,17.50
2018-12-02T13:37:15.439Z,17.50
2018-12-02T13:39:45.335Z,17.50
2018-12-02T13:42:22.543Z,17.50
2018-12-02T13:44:59.951Z,17.50
2018-12-02T13:47:30.162Z,17.50
2018-12-02T13:52:39.842Z,17.40
2018-12-02T13:55:09.360Z,17.40
2018-12-02T13:57:42.547Z,17.50
2018-12-02T14:00:18.985Z,17.50
2018-12-02T14:02:49.260Z,17.50
2018-12-02T14:08:11.121Z,17.40
2018-12-02T14:10:39.866Z,17.50
2018-12-02T14:13:12.154Z,17.40
2018-12-02T14:15:49.756Z,17.40
2018-12-02T14:18:20.456Z,17.50
2018-12-02T14:20:50.858Z,17.40
2018-12-02T14:23:21.148Z,17.50
2018-12-02T14:25:51.183Z,17.50
2018-12-02T14:28:24.923Z,17.50
2018-12-02T14:30:54.159Z,17.50
2018-12-02T14:33:24.718Z,17.50
2018-12-02T14:35:53.497Z,17.50
2018-12-02T14:38:21.595Z,17.50
2018-12-02T14:40:49.673Z,17.50
2018-12-02T14:43:19.160Z,17.50
2018-12-02T14:45:49.045Z,17.50
2018-12-02T14:48:18.022Z,17.50
2018-12-02T14:50:45.991Z,17.50
2018-12-02T14:53:14.476Z,17.40
2018-12-02T14:55:42.452Z,17.50
2018-12-02T14:58:11.212Z,17.40
2018-12-02T15:00:38.951Z,17.50
2018-12-02T15:03:06.974Z,17.40
2018-12-02T15:05:35.574Z,17.50
2018-12-02T15:08:04.920Z,17.50
2018-12-02T15:10:34.656Z,17.50
2018-12-02T15:13:06.214Z,17.40
2018-12-02T15:15:35.043Z,17.50
2018-12-02T15:18:04.232Z,17.50
2018-12-02T15:20:35.829Z,17.50
2018-12-02T15:23:14.839Z,17.40
2018-12-02T15:25:46.228Z,17.50
2018-12-02T15:28:14.922Z,17.50
2018-12-02T15:30:47.738Z,17.50
2018-12-02T15:33:16.067Z,17.50
2018-12-02T15:35:44.694Z,17.50
2018-12-02T15:38:13.102Z,17.50
2018-12-02T15:40:40.902Z,17.50
2018-12-02T15:43:08.754Z,17.50
2018-12-02T15:45:36.937Z,17.50
2018-12-02T15:48:05.770Z,17.50
2018-12-02T15:50:43.306Z,17.50
2018-12-02T15:53:12.318Z,17.40
2018-12-02T15:55:40.382Z,17.50
2018-12-02T15:58:12.060Z,17.50
2018-12-02T16:00:43.055Z,17.50
2018-12-02T16:03:11.744Z,17.50
2018-12-02T16:05:39.638Z,17.40
2018-12-02T16:08:07.949Z,17.50
2018-12-02T16:10:35.830Z,17.50
2018-12-02T16:13:03.861Z,17.50
2018-12-02T16:15:33.057Z,17.50
2018-12-02T16:18:00.896Z,17.60
2018-12-02T16:20:31.458Z,17.60
2018-12-02T16:22:59.360Z,17.60
2018-12-02T16:25:29.102Z,17.60
2018-12-02T16:28:05.241Z,17.60
2018-12-02T16:30:40.278Z,17.60
2018-12-02T16:33:09.790Z,17.60
2018-12-02T16:35:40.534Z,17.60
2018-12-02T16:38:15.069Z,17.70
2018-12-02T16:40:44.009Z,17.70
2018-12-02T16:43:13.090Z,17.70
2018-12-02T16:46:11.898Z,17.70
2018-12-02T16:48:50.846Z,17.70
2018-12-02T16:51:21.526Z,17.70
2018-12-02T16:57:14.641Z,17.70
2018-12-02T16:59:42.730Z,17.70
2018-12-02T17:02:10.590Z,17.80
2018-12-02T17:04:41.824Z,17.70
2018-12-02T17:07:15.832Z,17.70
2018-12-02T17:09:48.473Z,17.70
2018-12-02T17:12:25.108Z,17.80
2018-12-02T17:14:52.917Z,17.80
2018-12-02T17:17:20.713Z,17.80
2018-12-02T17:19:51.742Z,17.80
2018-12-02T17:22:32.041Z,17.80
2018-12-02T17:33:44.080Z,17.80
2018-12-02T17:36:11.707Z,17.80
2018-12-02T17:38:40.248Z,17.80
2018-12-02T17:41:09.751Z,17.80
2018-12-02T17:43:38.243Z,17.80
2018-12-02T17:46:07.231Z,17.80
2018-12-02T17:48:35.030Z,17.80
2018-12-02T17:51:02.697Z,17.80
2018-12-02T17:53:30.426Z,17.80
2018-12-02T17:55:58.178Z,17.80
2018-12-02T17:58:25.908Z,17.80
2018-12-02T18:00:55.238Z,17.80
2018-12-02T18:03:30.088Z,17.80
2018-12-02T18:05:57.678Z,17.90
2018-12-02T18:08:25.350Z,17.90
2018-12-02T18:10:52.999Z,17.90
2018-12-02T18:13:20.594Z,17.90
2018-12-02T18:15:48.217Z,17.90
2018-12-02T18:18:21.556Z,17.90
2018-12-02T18:20:49.170Z,17.90
2018-12-02T18:23:16.811Z,17.90
2018-12-02T18:25:44.448Z,17.90
2018-12-02T18:28:12.207Z,18.00
2018-12-02T18:30:39.778Z,18.00
2018-12-02T18:33:07.482Z,18.00
2018-12-02T18:35:38.097Z,18.00
2018-12-02T18:38:08.706Z,18.00
2018-12-02T18:40:36.738Z,18.00
2018-12-02T18:43:04.917Z,18.00
2018-12-02T18:45:32.581Z,17.90
2018-12-02T18:48:00.317Z,17.90
2018-12-02T18:50:28.471Z,17.90
2018-12-02T18:52:56.850Z,18.00
2018-12-02T18:55:25.024Z,18.00
2018-12-02T18:57:53.436Z,18.00
2018-12-02T19:00:26.661Z,18.00
2018-12-02T19:02:55.305Z,18.00
2018-12-02T19:05:22.889Z,18.00
2018-12-02T19:07:51.607Z,17.80
2018-12-02T19:10:21.083Z,17.90
2018-12-02T19:12:48.750Z,17.90
2018-12-02T19:15:16.404Z,17.80
2018-12-02T19:17:44.173Z,17.90
2018-12-02T19:20:15.478Z,17.90
2018-12-02T19:22:43.148Z,17.90
2018-12-02T19:25:11.740Z,17.80
2018-12-02T19:27:39.277Z,17.90
2018-12-02T19:30:11.198Z,17.80
2018-12-02T19:32:39.738Z,17.80
2018-12-02T19:35:08.874Z,17.90
2018-12-02T19:37:36.627Z,17.90
2018-12-02T19:40:04.969Z,17.90
2018-12-02T19:42:32.552Z,17.90
2018-12-02T19:45:00.242Z,17.90
2018-12-02T19:47:27.866Z,17.90
2018-12-02T19:49:55.465Z,17.80
2018-12-02T19:52:23.078Z,17.80
2018-12-02T19:54:50.753Z,17.90
2018-12-02T19:57:18.463Z,17.70
2018-12-02T19:59:46.058Z,17.60
2018-12-02T20:02:13.829Z,17.50
2018-12-02T20:04:41.488Z,17.60
2018-12-02T20:07:10.076Z,17.60
2018-12-02T20:09:39.172Z,17.60
2018-12-02T20:12:07.664Z,17.70
2018-12-02T20:14:36.135Z,17.70
2018-12-02T20:17:04.726Z,17.70
2018-12-02T20:19:38.433Z,17.70
2018-12-02T20:22:06.152Z,17.70
2018-12-02T20:24:42.128Z,17.70
2018-12-02T20:27:13.290Z,17.60
2018-12-02T20:29:40.969Z,17.60
2018-12-02T20:32:09.357Z,17.70
2018-12-02T20:34:37.074Z,17.70
2018-12-02T20:37:04.735Z,17.60
2018-12-02T20:39:32.446Z,17.60
2018-12-02T20:42:00.045Z,17.60
2018-12-02T20:44:27.698Z,17.60
2018-12-02T20:46:55.463Z,17.60
2018-12-02T20:49:23.098Z,17.70
2018-12-02T20:51:50.799Z,17.60
2018-12-02T20:54:18.373Z,17.60
2018-12-02T20:56:45.967Z,17.60
2018-12-02T20:59:13.566Z,17.60
2018-12-02T21:01:41.186Z,17.60
2018-12-02T21:04:09.795Z,17.70
2018-12-02T21:06:37.500Z,17.70
2018-12-02T21:09:05.893Z,17.60
2018-12-02T21:11:33.544Z,17.60
2018-12-02T21:14:01.268Z,17.60
2018-12-02T21:16:28.949Z,17.60
2018-12-02T21:18:56.589Z,17.70
2018-12-02T21:21:24.189Z,17.60
2018-12-02T21:23:51.793Z,17.60
2018-12-02T21:26:19.550Z,17.60
2018-12-02T21:28:47.199Z,17.60
2018-12-02T21:31:14.833Z,17.60
2018-12-02T21:33:42.472Z,17.60
2018-12-02T21:36:10.098Z,17.60
2018-12-02T21:38:37.790Z,17.60
2018-12-02T21:41:08.948Z,17.60
2018-12-02T21:43:36.578Z,17.60
2018-12-02T21:46:04.487Z,17.60
2018-12-02T21:48:32.046Z,17.60
2018-12-02T21:50:59.760Z,17.60
2018-12-02T21:53:27.743Z,17.60
2018-12-02T21:55:56.348Z,17.60
2018-12-02T21:58:23.939Z,17.60
2018-12-02T22:00:57.029Z,17.60
2018-12-02T22:03:24.625Z,17.60
2018-12-02T22:05:52.210Z,17.60
2018-12-02T22:08:19.838Z,17.60
2018-12-02T22:10:47.551Z,17.60
2018-12-02T22:13:15.164Z,17.60
2018-12-02T22:15:42.790Z,17.60
2018-12-02T22:18:10.362Z,17.60
2018-12-02T22:20:37.979Z,17.60
2018-12-02T22:23:05.595Z,17.60
2018-12-02T22:25:33.313Z,17.60
2018-12-02T22:28:00.890Z,17.60
2018-12-02T22:30:28.466Z,17.60
2018-12-02T22:32:57.131Z,17.60
2018-12-02T22:35:24.701Z,17.60
2018-12-02T22:37:52.316Z,17.60
2018-12-02T22:40:20.378Z,17.60
2018-12-02T22:42:48.010Z,17.60
2018-12-02T22:45:16.330Z,17.60
2018-12-02T22:47:43.942Z,17.60
2018-12-02T22:50:13.113Z,17.60
2018-12-02T22:52:40.850Z,17.60
2018-12-02T22:55:09.089Z,17.70
2018-12-02T22:57:36.879Z,17.60
2018-12-02T23:00:08.957Z,17.60
2018-12-02T23:02:42.130Z,17.60
2018-12-02T23:05:09.737Z,17.60
2018-12-02T23:07:37.269Z,17.60
2018-12-02T23:10:04.854Z,17.60
2018-12-02T23:12:32.466Z,17.60
2018-12-02T23:15:00.027Z,17.60
2018-12-02T23:17:27.677Z,17.60
2018-12-02T23:19:55.239Z,17.70
2018-12-02T23:22:22.852Z,17.70
2018-12-02T23:24:50.402Z,17.60
2018-12-02T23:27:19.051Z,17.60
2018-12-02T23:29:46.638Z,17.70
2018-12-02T23:32:14.238Z,17.60
2018-12-02T23:34:41.845Z,17.60
2018-12-02T23:37:09.424Z,17.60
2018-12-02T23:39:36.973Z,17.60
2018-12-02T23:42:04.603Z,17.60
2018-12-02T23:44:32.225Z,17.60
2018-12-02T23:46:59.863Z,17.60
2018-12-02T23:49:27.408Z,17.60
2018-12-02T23:51:55.035Z,17.60
2018-12-02T23:54:22.713Z,17.60
2018-12-02T23:56:50.979Z,17.60
2018-12-02T23:59:18.631Z,17.60
